Time;durP1;ratioP1;P1;durP2;ratioP2;P2;SDS_P1;SDS_P2;PMS_P1;PMS_P2;Temp;Humidity;BMP_temperature;BMP_pressure;BME280_temperature;BME280_humidity;BME280_pressure;Samples;Min_cycle;Max_cycle;Signal;HPM_P1;HPM_P2
2022/10/21 00:01:27;;;;;;;53.55;29.40;;;;;;;;;;4978023;28;20042;-73
2022/10/21 00:03:53;;;;;;;62.72;29.02;;;;;;;;;;4966330;28;20049;-73
2022/10/21 00:06:19;;;;;;;54.55;28.98;;;;;;;;;;4968229;28;20034;-73
2022/10/21 00:08:45;;;;;;;63.05;28.85;;;;;;;;;;4969035;28;20073;-76
2022/10/21 00:11:11;;;;;;;57.88;28.02;;;;;;;;;;4966861;28;20033;-72
2022/10/21 00:13:39;;;;;;;46.50;26.80;;;;;;;;;;4964698;28;20034;-76
2022/10/21 00:16:06;;;;;;;53.83;26.95;;;;;;;;;;4964251;28;20042;-75
2022/10/21 00:18:33;;;;;;;52.00;27.42;;;;;;;;;;4966371;28;20034;-77
2022/10/21 00:20:59;;;;;;;55.72;28.23;;;;;;;;;;4963493;28;20046;-74
2022/10/21 00:23:25;;;;;;;63.55;28.70;;;;;;;;;;4967293;28;20057;-75
2022/10/21 00:25:55;;;;;;;53.28;26.95;;;;;;;;;;4963249;28;20088;-74
2022/10/21 00:28:21;;;;;;;50.53;27.85;;;;;;;;;;4964921;28;20179;-76
2022/10/21 00:30:47;;;;;;;52.15;29.05;;;;;;;;;;4967527;28;20182;-72
2022/10/21 00:33:14;;;;;;;56.03;29.63;;;;;;;;;;4966172;28;20104;-75
2022/10/21 00:35:40;;;;;;;53.15;27.80;;;;;;;;;;4963691;28;20027;-72
2022/10/21 00:38:06;;;;;;;68.80;29.35;;;;;;;;;;4965808;28;20062;-73
2022/10/21 00:40:33;;;;;;;63.60;28.42;;;;;;;;;;4963036;28;20442;-74
2022/10/21 00:42:59;;;;;;;49.72;26.15;;;;;;;;;;4965953;28;20812;-76
2022/10/21 00:45:26;;;;;;;62.53;28.95;;;;;;;;;;4962840;28;20041;-73
2022/10/21 00:48:01;;;;;;;60.10;28.38;;;;;;;;;;4984748;28;20061;-78
2022/10/21 00:50:30;;;;;;;53.95;28.13;;;;;;;;;;4963950;28;20390;-73
2022/10/21 00:52:57;;;;;;;56.25;27.77;;;;;;;;;;4976251;28;20111;-73
2022/10/21 00:55:24;;;;;;;61.85;29.50;;;;;;;;;;4965879;28;20474;-73
2022/10/21 00:57:51;;;;;;;61.40;28.60;;;;;;;;;;4965289;28;20218;-74
2022/10/21 01:00:17;;;;;;;63.03;28.88;;;;;;;;;;4967220;28;20034;-72
2022/10/21 01:02:44;;;;;;;64.18;29.35;;;;;;;;;;4969444;28;20042;-72
2022/10/21 01:05:10;;;;;;;53.67;28.42;;;;;;;;;;4962687;28;20041;-73
2022/10/21 01:07:37;;;;;;;64.93;29.23;;;;;;;;;;4963035;28;20062;-75
2022/10/21 01:10:03;;;;;;;58.53;27.88;;;;;;;;;;4965724;28;20122;-73
2022/10/21 01:12:41;;;;;;;57.03;28.85;;;;;;;;;;4969304;28;20479;-74
2022/10/21 01:15:20;;;;;;;59.42;30.17;;;;;;;;;;4963006;28;20066;-74
2022/10/21 01:17:54;;;;;;;56.67;27.50;;;;;;;;;;4964611;28;20031;-74
2022/10/21 01:20:26;;;;;;;62.45;30.73;;;;;;;;;;4965757;28;20038;-73
2022/10/21 01:23:06;;;;;;;62.03;28.83;;;;;;;;;;4962237;28;20161;-75
2022/10/21 01:25:46;;;;;;;54.95;27.63;;;;;;;;;;4964150;28;21234;-76
2022/10/21 01:28:31;;;;;;;68.22;32.30;;;;;;;;;;4964281;28;20041;-73
2022/10/21 01:31:00;;;;;;;64.43;30.23;;;;;;;;;;4971781;28;20548;-73
2022/10/21 01:33:26;;;;;;;58.65;29.33;;;;;;;;;;4965301;28;20534;-72
2022/10/21 01:36:00;;;;;;;65.15;30.80;;;;;;;;;;4969024;28;20069;-76
2022/10/21 01:38:40;;;;;;;78.07;33.70;;;;;;;;;;4963228;28;20398;-74
2022/10/21 01:41:28;;;;;;;64.70;30.92;;;;;;;;;;4965399;28;20383;-73
2022/10/21 01:43:58;;;;;;;72.13;32.50;;;;;;;;;;4966844;28;20420;-73
2022/10/21 01:46:29;;;;;;;64.40;30.73;;;;;;;;;;4963701;28;20494;-73
2022/10/21 01:48:57;;;;;;;64.40;30.13;;;;;;;;;;4971777;28;20100;-73
2022/10/21 01:51:26;;;;;;;58.33;29.23;;;;;;;;;;4964995;28;20090;-75
2022/10/21 01:53:54;;;;;;;65.50;31.23;;;;;;;;;;4966946;28;20509;-74
2022/10/21 01:56:21;;;;;;;75.65;31.88;;;;;;;;;;4968664;28;20042;-76
2022/10/21 01:58:48;;;;;;;62.97;32.05;;;;;;;;;;4967197;28;20104;-72
2022/10/21 02:01:15;;;;;;;61.13;30.70;;;;;;;;;;4968352;28;20584;-73
2022/10/21 02:03:42;;;;;;;73.13;33.75;;;;;;;;;;4988398;28;20034;-72
2022/10/21 02:06:08;;;;;;;66.20;33.17;;;;;;;;;;4990238;28;20033;-72
2022/10/21 02:08:35;;;;;;;54.08;29.98;;;;;;;;;;4989517;28;20050;-73
2022/10/21 02:11:03;;;;;;;64.20;31.33;;;;;;;;;;4995609;28;20035;-73
2022/10/21 02:13:32;;;;;;;59.80;32.13;;;;;;;;;;4993325;28;20502;-73
2022/10/21 02:16:00;;;;;;;64.75;31.23;;;;;;;;;;4995080;28;20557;-76
2022/10/21 02:18:27;;;;;;;56.33;30.55;;;;;;;;;;4973155;28;20410;-76
2022/10/21 02:20:55;;;;;;;63.88;30.42;;;;;;;;;;4966382;28;20034;-73
2022/10/21 02:23:26;;;;;;;62.17;29.67;;;;;;;;;;4968215;28;20165;-76
2022/10/21 02:25:52;;;;;;;59.60;29.77;;;;;;;;;;4968329;28;20034;-73
2022/10/21 02:28:19;;;;;;;87.75;34.00;;;;;;;;;;4964628;28;20439;-74
2022/10/21 02:30:52;;;;;;;90.25;34.58;;;;;;;;;;4968023;28;20046;-75
2022/10/21 02:33:22;;;;;;;65.93;33.40;;;;;;;;;;4971834;28;20031;-73
2022/10/21 02:36:12;;;;;;;76.15;34.88;;;;;;;;;;4965611;28;20107;-75
2022/10/21 02:38:41;;;;;;;71.25;32.42;;;;;;;;;;4968007;28;20034;-74
2022/10/21 02:41:09;;;;;;;61.35;30.33;;;;;;;;;;4966287;28;20042;-74
2022/10/21 02:43:47;;;;;;;65.65;31.80;;;;;;;;;;4967715;28;20048;-76
2022/10/21 02:46:14;;;;;;;69.30;30.83;;;;;;;;;;4986803;28;20030;-74
2022/10/21 02:48:43;;;;;;;66.20;31.02;;;;;;;;;;4991040;28;20030;-74
2022/10/21 02:51:09;;;;;;;90.95;35.15;;;;;;;;;;4986957;28;20030;-74
2022/10/21 02:53:36;;;;;;;90.97;43.83;;;;;;;;;;4990068;28;20534;-74
2022/10/21 02:56:02;;;;;;;80.40;32.70;;;;;;;;;;4989028;28;20402;-72
2022/10/21 02:58:28;;;;;;;68.65;31.85;;;;;;;;;;4985871;28;20037;-73
2022/10/21 03:00:54;;;;;;;67.35;30.75;;;;;;;;;;4991372;28;20045;-75
2022/10/21 03:03:20;;;;;;;69.30;30.25;;;;;;;;;;4988613;28;20049;-72
2022/10/21 03:05:47;;;;;;;70.30;31.15;;;;;;;;;;4988042;28;20030;-72
2022/10/21 03:08:13;;;;;;;64.32;28.38;;;;;;;;;;4987958;28;20450;-73
2022/10/21 03:10:39;;;;;;;55.72;25.65;;;;;;;;;;4990085;28;20081;-73
2022/10/21 03:13:05;;;;;;;59.20;27.08;;;;;;;;;;4992640;28;20391;-73
2022/10/21 03:15:31;;;;;;;48.67;25.05;;;;;;;;;;4991444;28;20390;-73
2022/10/21 03:17:57;;;;;;;49.70;23.33;;;;;;;;;;4989614;28;20371;-72
2022/10/21 03:20:23;;;;;;;53.20;22.65;;;;;;;;;;4991538;28;20545;-72
2022/10/21 03:22:49;;;;;;;44.83;21.85;;;;;;;;;;4991467;28;20463;-71
2022/10/21 03:25:15;;;;;;;53.38;23.13;;;;;;;;;;4991706;28;20471;-72
2022/10/21 03:27:41;;;;;;;56.53;24.15;;;;;;;;;;4988490;28;20034;-75
2022/10/21 03:30:08;;;;;;;49.15;23.08;;;;;;;;;;4992570;28;20383;-72
2022/10/21 03:32:34;;;;;;;47.95;21.48;;;;;;;;;;4988744;28;20038;-72
2022/10/21 03:35:00;;;;;;;53.13;22.88;;;;;;;;;;4992458;28;20483;-72
2022/10/21 03:37:26;;;;;;;44.45;22.05;;;;;;;;;;4990042;28;20062;-73
2022/10/21 03:39:52;;;;;;;51.70;22.40;;;;;;;;;;4990708;28;20088;-72
2022/10/21 03:42:18;;;;;;;57.13;23.65;;;;;;;;;;4990792;28;20114;-74
2022/10/21 03:44:44;;;;;;;56.42;23.55;;;;;;;;;;4990932;28;20034;-73
2022/10/21 03:47:10;;;;;;;50.42;22.70;;;;;;;;;;4988676;28;20038;-75
2022/10/21 03:49:36;;;;;;;39.58;22.33;;;;;;;;;;4991621;28;20041;-73
2022/10/21 03:52:02;;;;;;;47.33;22.40;;;;;;;;;;4988581;28;21319;-73
2022/10/21 03:54:28;;;;;;;49.30;24.45;;;;;;;;;;4991358;28;20038;-73
2022/10/21 03:56:54;;;;;;;54.88;22.83;;;;;;;;;;4990782;28;20495;-74
2022/10/21 03:59:20;;;;;;;52.50;23.60;;;;;;;;;;4986619;28;20041;-73
2022/10/21 04:01:46;;;;;;;52.90;22.98;;;;;;;;;;4992058;28;20030;-72
2022/10/21 04:04:12;;;;;;;68.32;26.20;;;;;;;;;;4990362;28;20034;-72
2022/10/21 04:06:39;;;;;;;55.58;26.23;;;;;;;;;;4991080;28;20038;-72
2022/10/21 04:09:05;;;;;;;64.38;26.65;;;;;;;;;;4989971;28;20073;-73
2022/10/21 04:11:31;;;;;;;57.63;25.73;;;;;;;;;;4990386;28;20037;-73
2022/10/21 04:13:57;;;;;;;74.78;27.85;;;;;;;;;;4990338;28;20050;-73
2022/10/21 04:16:23;;;;;;;63.92;26.50;;;;;;;;;;4987119;28;20125;-73
2022/10/21 04:18:49;;;;;;;67.25;28.42;;;;;;;;;;4990597;28;20034;-72
2022/10/21 04:21:15;;;;;;;64.45;27.27;;;;;;;;;;4989802;28;20038;-72
2022/10/21 04:23:42;;;;;;;73.07;30.88;;;;;;;;;;4989391;28;20038;-72
2022/10/21 04:26:08;;;;;;;70.18;30.65;;;;;;;;;;4977752;28;20035;-72
2022/10/21 04:28:34;;;;;;;71.63;29.42;;;;;;;;;;4983333;28;20073;-72
2022/10/21 04:31:00;;;;;;;66.88;29.65;;;;;;;;;;4990589;28;20030;-74
2022/10/21 04:33:27;;;;;;;66.07;29.52;;;;;;;;;;4987429;28;20384;-73
2022/10/21 04:35:53;;;;;;;70.50;31.35;;;;;;;;;;4989945;28;20395;-72
2022/10/21 04:38:20;;;;;;;71.45;30.58;;;;;;;;;;4990267;28;20036;-72
2022/10/21 04:40:46;;;;;;;85.15;30.70;;;;;;;;;;4988534;28;20491;-72
2022/10/21 04:43:12;;;;;;;73.30;31.83;;;;;;;;;;4982163;28;20042;-72
2022/10/21 04:45:39;;;;;;;77.47;32.13;;;;;;;;;;4985929;28;20414;-72
2022/10/21 04:48:06;;;;;;;87.68;32.85;;;;;;;;;;4989005;28;20045;-76
2022/10/21 04:50:33;;;;;;;86.25;32.65;;;;;;;;;;4986185;28;20372;-74
2022/10/21 04:52:59;;;;;;;95.15;31.40;;;;;;;;;;4991294;28;20074;-72
2022/10/21 04:55:25;;;;;;;80.53;31.88;;;;;;;;;;4988795;28;20061;-72
2022/10/21 04:57:51;;;;;;;85.07;32.72;;;;;;;;;;4989027;28;20053;-73
2022/10/21 05:00:18;;;;;;;89.70;32.97;;;;;;;;;;4988418;28;20042;-75
2022/10/21 05:02:44;;;;;;;69.65;28.10;;;;;;;;;;4991416;28;20046;-71
2022/10/21 05:05:10;;;;;;;81.20;30.83;;;;;;;;;;4986547;28;20018;-71
2022/10/21 05:07:36;;;;;;;88.35;32.03;;;;;;;;;;4986692;28;20135;-73
2022/10/21 05:10:02;;;;;;;83.07;31.63;;;;;;;;;;4989338;28;20039;-72
2022/10/21 05:12:28;;;;;;;99.22;33.17;;;;;;;;;;4991152;28;21093;-73
2022/10/21 05:14:54;;;;;;;79.70;31.73;;;;;;;;;;4985697;28;20475;-72
2022/10/21 05:17:21;;;;;;;96.88;33.90;;;;;;;;;;4986927;28;20081;-75
2022/10/21 05:19:47;;;;;;;78.97;32.88;;;;;;;;;;4990709;28;20030;-75
2022/10/21 05:22:13;;;;;;;107.47;34.95;;;;;;;;;;4987308;28;20038;-72
2022/10/21 05:24:39;;;;;;;82.03;32.10;;;;;;;;;;4990311;28;20035;-72
2022/10/21 05:27:05;;;;;;;113.13;34.92;;;;;;;;;;4986127;28;20361;-72
2022/10/21 05:29:31;;;;;;;93.25;33.78;;;;;;;;;;4987667;28;20022;-72
2022/10/21 05:31:57;;;;;;;89.88;34.08;;;;;;;;;;4975592;28;20042;-75
2022/10/21 05:34:23;;;;;;;109.63;34.10;;;;;;;;;;4967215;28;20053;-74
2022/10/21 05:36:49;;;;;;;86.15;34.33;;;;;;;;;;4972327;28;20031;-75
2022/10/21 05:39:15;;;;;;;90.38;33.10;;;;;;;;;;4987916;28;20027;-73
2022/10/21 05:41:41;;;;;;;93.00;32.65;;;;;;;;;;4983212;28;20049;-74
2022/10/21 05:44:07;;;;;;;110.20;37.65;;;;;;;;;;4987143;28;20046;-70
2022/10/21 05:46:33;;;;;;;118.30;36.05;;;;;;;;;;4986192;28;20035;-71
2022/10/21 05:49:00;;;;;;;100.60;36.05;;;;;;;;;;4987184;28;20081;-71
2022/10/21 05:51:27;;;;;;;91.47;36.15;;;;;;;;;;4986820;28;20034;-73
2022/10/21 05:53:53;;;;;;;109.35;36.83;;;;;;;;;;4989056;28;20062;-74
2022/10/21 05:56:19;;;;;;;88.82;36.00;;;;;;;;;;4983324;28;20505;-74
2022/10/21 05:58:45;;;;;;;114.30;38.83;;;;;;;;;;4989838;28;20038;-73
2022/10/21 06:01:11;;;;;;;92.80;34.53;;;;;;;;;;4983867;28;20022;-71
2022/10/21 06:03:37;;;;;;;112.95;37.55;;;;;;;;;;4995202;28;20065;-72
2022/10/21 06:06:05;;;;;;;95.68;37.17;;;;;;;;;;4998086;28;20410;-72
2022/10/21 06:08:33;;;;;;;101.00;38.45;;;;;;;;;;4987590;28;20042;-74
2022/10/21 06:11:00;;;;;;;111.53;39.70;;;;;;;;;;4986338;28;20632;-73
2022/10/21 06:13:27;;;;;;;110.65;37.65;;;;;;;;;;4981361;28;20057;-72
2022/10/21 06:15:53;;;;;;;107.40;39.88;;;;;;;;;;4988364;28;20096;-74
2022/10/21 06:18:19;;;;;;;106.47;41.22;;;;;;;;;;5002379;28;20034;-73
2022/10/21 06:20:45;;;;;;;134.57;41.08;;;;;;;;;;4989258;28;20031;-75
2022/10/21 06:23:11;;;;;;;128.88;44.10;;;;;;;;;;4983412;28;20034;-68
2022/10/21 06:25:38;;;;;;;109.72;39.50;;;;;;;;;;4985606;28;20042;-70
2022/10/21 06:28:04;;;;;;;109.75;39.78;;;;;;;;;;4991002;28;20118;-71
2022/10/21 06:30:30;;;;;;;87.68;36.97;;;;;;;;;;4989349;28;20030;-73
2022/10/21 06:32:56;;;;;;;101.10;39.33;;;;;;;;;;4988261;28;20415;-72
2022/10/21 06:35:22;;;;;;;103.75;39.28;;;;;;;;;;4994414;28;20031;-70
2022/10/21 06:37:48;;;;;;;97.78;39.10;;;;;;;;;;4990398;28;20043;-71
2022/10/21 06:40:14;;;;;;;90.85;37.40;;;;;;;;;;4993113;28;20120;-70
2022/10/21 06:42:40;;;;;;;93.38;37.72;;;;;;;;;;5000109;28;20042;-72
2022/10/21 06:45:06;;;;;;;99.22;40.67;;;;;;;;;;4992650;28;20030;-73
2022/10/21 06:47:33;;;;;;;94.65;39.28;;;;;;;;;;4995666;28;20467;-72
2022/10/21 06:50:01;;;;;;;104.38;42.60;;;;;;;;;;4987794;28;20037;-74
2022/10/21 06:52:28;;;;;;;103.97;44.00;;;;;;;;;;4979001;28;20049;-69
2022/10/21 06:54:54;;;;;;;141.35;67.20;;;;;;;;;;4986254;28;20522;-71
2022/10/21 06:57:20;;;;;;;136.25;50.80;;;;;;;;;;4991317;28;20058;-71
2022/10/21 06:59:47;;;;;;;105.53;40.65;;;;;;;;;;4990032;28;20442;-71
2022/10/21 07:02:13;;;;;;;95.60;38.85;;;;;;;;;;4990616;28;20036;-71
2022/10/21 07:04:43;;;;;;;100.25;40.80;;;;;;;;;;4990831;28;20070;-73
2022/10/21 07:07:09;;;;;;;100.00;39.88;;;;;;;;;;4989642;28;20030;-72
2022/10/21 07:09:35;;;;;;;107.80;40.78;;;;;;;;;;4987687;28;20058;-70
2022/10/21 07:12:01;;;;;;;84.22;36.13;;;;;;;;;;4995939;28;20536;-71
2022/10/21 07:14:28;;;;;;;90.38;35.67;;;;;;;;;;4984977;28;20395;-71
2022/10/21 07:16:54;;;;;;;87.60;35.47;;;;;;;;;;4988108;28;20084;-71
2022/10/21 07:19:20;;;;;;;92.63;35.70;;;;;;;;;;4993257;28;20038;-70
2022/10/21 07:21:46;;;;;;;98.95;35.50;;;;;;;;;;4990946;28;20043;-70
2022/10/21 07:24:12;;;;;;;96.25;34.40;;;;;;;;;;4979234;28;20033;-74
2022/10/21 07:26:38;;;;;;;83.90;34.15;;;;;;;;;;4987303;28;20126;-70
2022/10/21 07:29:05;;;;;;;77.13;33.10;;;;;;;;;;4991835;28;20071;-70
2022/10/21 07:31:33;;;;;;;78.15;32.70;;;;;;;;;;4998375;28;20449;-75
2022/10/21 07:34:00;;;;;;;90.72;34.80;;;;;;;;;;4985215;28;20434;-70
2022/10/21 07:36:27;;;;;;;77.07;33.85;;;;;;;;;;4989469;28;20447;-71
2022/10/21 07:38:54;;;;;;;92.85;40.70;;;;;;;;;;4984438;28;20053;-70
2022/10/21 07:41:22;;;;;;;70.32;30.73;;;;;;;;;;4989840;28;20032;-73
2022/10/21 07:43:49;;;;;;;63.10;28.25;;;;;;;;;;5001823;28;20027;-74
2022/10/21 07:46:15;;;;;;;73.10;29.95;;;;;;;;;;4988722;28;20084;-73
2022/10/21 07:48:41;;;;;;;56.75;27.30;;;;;;;;;;4998342;28;20121;-72
2022/10/21 07:51:13;;;;;;;64.25;28.10;;;;;;;;;;4982372;28;20030;-70
2022/10/21 07:53:40;;;;;;;67.50;28.02;;;;;;;;;;4989237;28;20416;-71
2022/10/21 07:56:08;;;;;;;59.83;28.27;;;;;;;;;;4981189;28;20027;-72
2022/10/21 07:58:34;;;;;;;62.67;29.17;;;;;;;;;;4994129;28;20496;-69
2022/10/21 08:01:01;;;;;;;68.25;28.30;;;;;;;;;;4979885;28;20042;-69
2022/10/21 08:03:28;;;;;;;77.75;38.38;;;;;;;;;;4984595;28;20042;-70
2022/10/21 08:05:54;;;;;;;93.50;45.83;;;;;;;;;;4987304;28;20438;-68
2022/10/21 08:08:20;;;;;;;60.33;27.67;;;;;;;;;;4983462;28;20054;-70
2022/10/21 08:10:47;;;;;;;61.58;28.10;;;;;;;;;;4990440;28;20049;-70
2022/10/21 08:13:13;;;;;;;66.57;29.02;;;;;;;;;;4979909;28;20084;-73
2022/10/21 08:15:46;;;;;;;68.25;30.98;;;;;;;;;;4988876;28;20042;-71
2022/10/21 08:18:13;;;;;;;55.42;27.90;;;;;;;;;;4991563;28;20038;-70
2022/10/21 08:20:39;;;;;;;56.58;26.42;;;;;;;;;;4991888;28;20033;-70
2022/10/21 08:23:06;;;;;;;61.55;26.25;;;;;;;;;;4990953;28;20070;-70
2022/10/21 08:25:32;;;;;;;54.88;27.08;;;;;;;;;;4991291;28;20038;-70
2022/10/21 08:27:58;;;;;;;51.65;25.65;;;;;;;;;;4989762;28;20494;-72
2022/10/21 08:30:28;;;;;;;54.60;26.92;;;;;;;;;;4990214;28;20066;-69
2022/10/21 08:32:56;;;;;;;53.72;25.38;;;;;;;;;;4991384;28;20093;-70
2022/10/21 08:35:22;;;;;;;48.65;24.20;;;;;;;;;;4990523;28;20046;-73
2022/10/21 08:37:48;;;;;;;46.65;22.88;;;;;;;;;;4992003;28;20121;-70
2022/10/21 08:40:14;;;;;;;44.25;23.77;;;;;;;;;;4983466;28;20356;-68
2022/10/21 08:42:43;;;;;;;49.70;23.60;;;;;;;;;;4988910;28;20038;-69
2022/10/21 08:45:10;;;;;;;43.63;22.80;;;;;;;;;;4987684;28;20053;-69
2022/10/21 08:47:44;;;;;;;57.80;26.55;;;;;;;;;;4987451;28;20038;-69
2022/10/21 08:50:18;;;;;;;54.97;24.40;;;;;;;;;;4980651;28;20092;-70
2022/10/21 08:52:59;;;;;;;63.55;26.30;;;;;;;;;;4984931;28;20064;-70
2022/10/21 08:55:33;;;;;;;49.58;24.02;;;;;;;;;;4984481;28;20046;-69
2022/10/21 08:57:59;;;;;;;52.33;24.27;;;;;;;;;;4991142;28;20026;-70
2022/10/21 09:00:30;;;;;;;48.13;22.73;;;;;;;;;;4985598;28;20125;-69
2022/10/21 09:03:18;;;;;;;40.55;19.80;;;;;;;;;;4989226;28;20034;-70
2022/10/21 09:05:53;;;;;;;47.80;22.08;;;;;;;;;;4984302;28;20125;-72
2022/10/21 09:08:28;;;;;;;41.45;21.00;;;;;;;;;;4981425;28;20125;-71
2022/10/21 09:11:18;;;;;;;34.67;19.73;;;;;;;;;;4982303;28;20475;-71
2022/10/21 09:13:49;;;;;;;37.67;21.65;;;;;;;;;;4990444;28;20037;-70
2022/10/21 09:16:36;;;;;;;40.20;24.23;;;;;;;;;;4986618;28;20402;-71
2022/10/21 09:19:11;;;;;;;28.98;17.17;;;;;;;;;;4987503;28;20234;-73
2022/10/21 09:21:51;;;;;;;28.83;17.02;;;;;;;;;;5000896;28;20076;-70
2022/10/21 09:24:30;;;;;;;27.33;16.55;;;;;;;;;;4990376;28;20042;-71
2022/10/21 09:26:56;;;;;;;36.28;17.50;;;;;;;;;;4986727;28;20039;-73
2022/10/21 09:29:28;;;;;;;27.23;16.25;;;;;;;;;;4986906;28;20405;-73
2022/10/21 09:32:14;;;;;;;32.00;18.83;;;;;;;;;;4984083;28;20034;-71
2022/10/21 09:34:46;;;;;;;37.35;18.92;;;;;;;;;;4988211;28;20046;-71
2022/10/21 09:37:15;;;;;;;26.77;16.53;;;;;;;;;;4985463;28;20487;-70
2022/10/21 09:39:45;;;;;;;32.55;16.75;;;;;;;;;;4989337;28;20038;-73
2022/10/21 09:42:12;;;;;;;24.83;15.77;;;;;;;;;;4982099;28;20125;-70
2022/10/21 09:44:38;;;;;;;27.13;16.58;;;;;;;;;;4985938;28;20076;-70
2022/10/21 09:47:15;;;;;;;26.00;15.10;;;;;;;;;;4986909;28;20440;-71
2022/10/21 09:49:45;;;;;;;26.00;15.68;;;;;;;;;;4981411;28;20038;-71
2022/10/21 09:52:13;;;;;;;23.38;14.55;;;;;;;;;;4986863;28;20081;-71
2022/10/21 09:54:40;;;;;;;23.55;14.15;;;;;;;;;;4989336;28;20403;-73
2022/10/21 09:57:22;;;;;;;28.40;14.35;;;;;;;;;;4992479;28;20034;-70
2022/10/21 09:59:59;;;;;;;28.65;15.60;;;;;;;;;;4988832;28;20026;-71
2022/10/21 10:02:28;;;;;;;29.52;15.20;;;;;;;;;;4986527;28;20045;-75
2022/10/21 10:04:54;;;;;;;25.00;13.52;;;;;;;;;;5001911;28;20041;-73
2022/10/21 10:07:30;;;;;;;21.42;13.32;;;;;;;;;;4989393;28;20089;-72
2022/10/21 10:09:56;;;;;;;26.65;13.02;;;;;;;;;;4989297;28;20038;-70
2022/10/21 10:12:23;;;;;;;25.13;13.50;;;;;;;;;;4987411;28;20105;-69
2022/10/21 10:14:49;;;;;;;18.50;11.88;;;;;;;;;;4990068;28;20038;-71
2022/10/21 10:17:32;;;;;;;22.02;12.10;;;;;;;;;;5003763;28;20030;-75
2022/10/21 10:20:07;;;;;;;26.05;12.27;;;;;;;;;;4980248;28;20467;-71
2022/10/21 10:22:36;;;;;;;27.88;11.57;;;;;;;;;;4992362;28;20080;-70
2022/10/21 10:25:11;;;;;;;21.98;12.25;;;;;;;;;;4989476;28;20245;-72
2022/10/21 10:27:51;;;;;;;19.73;11.95;;;;;;;;;;4993548;28;20475;-69
2022/10/21 10:30:17;;;;;;;18.08;11.40;;;;;;;;;;4986565;28;20081;-68
2022/10/21 10:32:45;;;;;;;16.30;11.45;;;;;;;;;;4989269;28;20073;-73
2022/10/21 10:35:24;;;;;;;23.05;12.00;;;;;;;;;;4986121;28;20035;-71
2022/10/21 10:37:50;;;;;;;27.52;17.45;;;;;;;;;;4990158;28;20042;-68
2022/10/21 10:40:20;;;;;;;17.50;12.00;;;;;;;;;;4992970;28;20022;-68
2022/10/21 10:42:46;;;;;;;23.60;12.38;;;;;;;;;;4991658;28;20034;-67
2022/10/21 10:45:18;;;;;;;21.48;11.48;;;;;;;;;;4985850;28;20046;-68
2022/10/21 10:48:02;;;;;;;21.25;10.90;;;;;;;;;;4988219;28;20112;-71
2022/10/21 10:50:38;;;;;;;15.38;10.10;;;;;;;;;;4991650;28;20035;-71
2022/10/21 10:53:20;;;;;;;17.20;11.18;;;;;;;;;;4992534;28;20030;-73
2022/10/21 10:55:49;;;;;;;17.08;10.77;;;;;;;;;;4993993;28;20041;-71
2022/10/21 10:58:16;;;;;;;23.70;10.05;;;;;;;;;;4988677;28;20137;-76
2022/10/21 11:00:44;;;;;;;15.88;9.40;;;;;;;;;;4993037;28;20117;-71
2022/10/21 11:03:12;;;;;;;17.85;10.15;;;;;;;;;;4986237;28;20038;-70
2022/10/21 11:05:46;;;;;;;16.10;9.80;;;;;;;;;;4987893;28;20027;-69
2022/10/21 11:08:12;;;;;;;22.30;11.20;;;;;;;;;;4985951;28;20042;-69
2022/10/21 11:10:49;;;;;;;16.80;9.38;;;;;;;;;;4992844;28;20383;-68
2022/10/21 11:13:18;;;;;;;30.58;13.18;;;;;;;;;;4987535;28;20117;-67
2022/10/21 11:16:15;;;;;;;40.95;21.55;;;16.00;99.90;;;;;;4997445;28;20029;-72
2022/10/21 11:18:56;;;;;;;23.25;11.02;;;;;;;;;;4986261;28;20034;-69
2022/10/21 11:21:26;;;;;;;37.15;13.00;;;;;;;;;;4988219;28;20034;-69
2022/10/21 11:24:07;;;;;;;27.33;10.20;;;;;;;;;;4989767;28;20667;-68
2022/10/21 11:26:33;;;;;;;69.68;16.80;;;;;;;;;;4987235;28;20036;-73
2022/10/21 11:29:17;;;;;;;48.58;16.35;;;;;;;;;;4984870;28;20064;-69
2022/10/21 11:31:55;;;;;;;18.75;10.30;;;;;;;;;;4991765;28;20034;-69
2022/10/21 11:34:34;;;;;;;21.23;9.38;;;;;;;;;;4975379;28;20534;-71
2022/10/21 11:37:03;;;;;;;15.23;8.90;;;;;;;;;;4989950;28;20077;-70
2022/10/21 11:39:33;;;;;;;25.73;9.98;;;;;;;;;;4991587;28;20057;-69
2022/10/21 11:42:08;;;;;;;14.82;7.60;;;;;;;;;;4991624;28;20113;-71
2022/10/21 11:44:43;;;;;;;18.77;9.05;;;;;;;;;;4992190;28;20045;-69
2022/10/21 11:47:15;;;;;;;15.45;7.85;;;;;;;;;;4991581;28;20785;-69
2022/10/21 11:49:44;;;;;;;15.10;7.80;;;;;;;;;;4992323;28;20498;-69
2022/10/21 11:52:16;;;;;;;11.95;8.02;;;;;;;;;;4990404;28;20035;-69
2022/10/21 11:55:01;;;;;;;13.27;8.77;;;;;;;;;;4984284;28;20038;-69
2022/10/21 11:57:27;;;;;;;28.70;7.72;;;;;;;;;;4991626;28;20462;-69
2022/10/21 12:00:00;;;;;;;10.88;7.55;;;;;;;;;;4991348;28;20365;-71
2022/10/21 12:02:26;;;;;;;12.88;7.28;;;;;;;;;;4991230;28;20030;-69
2022/10/21 12:05:11;;;;;;;12.70;7.78;;;;;;;;;;4987566;28;20040;-74
2022/10/21 12:07:49;;;;;;;10.77;6.57;;;;;;;;;;4990744;28;20050;-69
2022/10/21 12:10:26;;;;;;;10.52;6.50;;;;;;;;;;4991093;28;20026;-72
2022/10/21 12:12:53;;;;;;;10.55;6.15;;;;;;;;;;4990874;28;20026;-69
2022/10/21 12:15:19;;;;;;;15.77;6.90;;;;;;;;;;4988873;28;20415;-70
2022/10/21 12:17:47;;;;;;;18.23;9.73;;;16.40;99.90;;;;;;4992403;28;20061;-70
2022/10/21 12:20:19;;;;;;;10.23;6.25;;;;;;;;;;4991901;28;20113;-69
2022/10/21 12:22:45;;;;;;;11.95;6.07;;;;;;;;;;4990059;28;20026;-70
2022/10/21 12:25:11;;;;;;;12.50;6.72;;;;;;;;;;4989704;28;20026;-71
2022/10/21 12:27:46;;;;;;;17.00;6.75;;;;;;;;;;4991289;28;20034;-69
2022/10/21 12:30:15;;;;;;;10.32;6.38;;;;;;;;;;4991072;28;20036;-70
2022/10/21 12:32:41;;;;;;;21.13;7.97;;;;;;;;;;4991539;28;20502;-69
2022/10/21 12:35:24;;;;;;;12.73;6.68;;;;;;;;;;4990482;28;20034;-69
2022/10/21 12:37:50;;;;;;;12.63;6.78;;;;;;;;;;4988929;28;20526;-69
2022/10/21 12:40:34;;;;;;;15.18;6.93;;;;;;;;;;4989734;28;20114;-72
2022/10/21 12:43:01;;;;;;;17.77;8.48;;;;;;;;;;4994812;28;20061;-69
2022/10/21 12:45:37;;;;;;;17.30;7.07;;;16.70;99.90;;;;;;4990567;28;20034;-68
2022/10/21 12:48:38;;;;;;;10.77;6.88;;;16.90;99.90;;;;;;4997296;28;20117;-73
2022/10/21 12:51:17;;;;;;;12.88;6.55;;;;;;;;;;4981025;28;20056;-69
2022/10/21 12:53:51;;;;;;;8.63;6.47;;;;;;;;;;4991033;28;20038;-70
2022/10/21 12:56:31;;;;;;;12.02;6.40;;;;;;;;;;4986276;28;20038;-70
2022/10/21 12:59:00;;;;;;;15.60;6.40;;;;;;;;;;4987793;28;20410;-70
2022/10/21 13:01:35;;;;;;;16.70;7.40;;;;;;;;;;4989524;28;20023;-69
2022/10/21 13:04:01;;;;;;;11.63;6.28;;;;;;;;;;4990973;28;20469;-69
2022/10/21 13:06:46;;;;;;;10.30;5.82;;;;;;;;;;4990640;28;20073;-69
2022/10/21 13:09:31;;;;;;;16.83;7.00;;;;;;;;;;4990315;28;20491;-70
2022/10/21 13:12:09;;;;;;;14.02;6.15;;;;;;;;;;4990431;28;20022;-69
2022/10/21 13:14:45;;;;;;;13.95;6.20;;;;;;;;;;4987473;28;20061;-68
2022/10/21 13:17:31;;;;;;;16.77;7.15;;;;;;;;;;4993697;28;20395;-69
2022/10/21 13:20:17;;;;;;;15.20;6.63;;;;;;;;;;4985902;28;20022;-71
2022/10/21 13:22:43;;;;;;;17.58;6.57;;;;;;;;;;4997691;28;20117;-75
2022/10/21 13:25:16;;;;;;;16.25;5.57;;;;;;;;;;4989428;28;20026;-70
2022/10/21 13:27:43;;;;;;;13.10;6.35;;;;;;;;;;4987020;28;20033;-70
2022/10/21 13:30:09;;;;;;;11.52;5.68;;;;;;;;;;4988323;28;20030;-70
2022/10/21 13:32:36;;;;;;;18.02;7.00;;;;;;;;;;4989223;28;20038;-74
2022/10/21 13:35:02;;;;;;;13.15;6.97;;;;;;;;;;4990926;28;20041;-70
2022/10/21 13:37:36;;;;;;;14.20;6.32;;;;;;;;;;4979919;28;20031;-71
2022/10/21 13:40:05;;;;;;;18.83;6.88;;;;;;;;;;5000583;28;20023;-69
2022/10/21 13:42:39;;;;;;;12.65;5.65;;;;;;;;;;4991397;28;20206;-69
2022/10/21 13:45:25;;;;;;;21.58;7.88;;;;;;;;;;4984622;28;20554;-69
2022/10/21 13:48:05;;;;;;;15.90;9.90;;;;;;;;;;4986421;28;20078;-68
2022/10/21 13:50:34;;;;;;;15.23;7.55;;;;;;;;;;5006967;28;20042;-70
2022/10/21 13:53:02;;;;;;;11.90;6.10;;;;;;;;;;4989802;28;20042;-71
2022/10/21 13:55:28;;;;;;;19.08;7.57;;;;;;;;;;4987008;28;20121;-71
2022/10/21 13:57:55;;;;;;;17.85;7.32;;;;;;;;;;4992194;28;20472;-71
2022/10/21 14:00:23;;;;;;;12.38;7.45;;;;;;;;;;4988941;28;20384;-71
2022/10/21 14:02:53;;;;;;;18.02;6.30;;;;;;;;;;4998711;28;20064;-73
2022/10/21 14:05:26;;;;;;;13.73;6.75;;;;;;;;;;4989743;28;20038;-69
2022/10/21 14:07:53;;;;;;;16.52;7.50;;;;;;;;;;4994127;28;20065;-70
2022/10/21 14:10:19;;;;;;;18.33;7.80;;;;;;;;;;4989853;28;20117;-71
2022/10/21 14:12:45;;;;;;;20.63;7.55;;;;;;;;;;4991244;28;20041;-71
2022/10/21 14:15:16;;;;;;;21.95;8.40;;;;;;;;;;4985653;28;20038;-71
2022/10/21 14:17:43;;;;;;;16.88;7.53;;;;;;;;;;4991767;28;20080;-71
2022/10/21 14:20:14;;;;;;;13.15;6.68;;;;;;;;;;4988941;28;20070;-72
2022/10/21 14:22:40;;;;;;;15.50;6.28;;;;;;;;;;4993165;28;20036;-72
2022/10/21 14:25:14;;;;;;;14.98;7.30;;;;;;;;;;4991730;28;20026;-70
2022/10/21 14:27:40;;;;;;;11.98;6.78;;;;;;;;;;4994110;28;20489;-71
2022/10/21 14:30:08;;;;;;;15.82;6.70;;;;;;;;;;4990994;28;20037;-73